KGMU/GMU METAR and TAF weather

Enter ICAO airport designator
Station Type Date Time Source
KGMU METAR 2022/01/25 03:53 UTC NOAA

KGMU 250353Z AUTO 22008KT 10SM CLR 08/M02 A2990 RMK AO2 SLP127 T00831017


Station Type Date Time Source
KGMU Decoded METAR 2022/01/25 03:53 UTC NOAA

GREENVILLE DOWNTOWN AIRPORT , SC, United States (KGMU) 34-51N 82-21W 315M
Jan 24, 2022 - 10:53 PM EST / 2022.01.25 0353 UTC
Wind: from the SW (220 degrees) at 9 MPH (8 KT):0
Visibility: 10 mile(s):0
Sky conditions: clear
Temperature: 46.9 F (8.3 C)
Dew Point: 28.9 F (-1.7 C)
Relative Humidity: 49%
Pressure (altimeter): 29.9 in. Hg (1012 hPa)
ob: KGMU 250353Z AUTO 22008KT 10SM CLR 08/M02 A2990 RMK AO2 SLP127 T00831017
cycle: 4

Station Type Date Time Source
KGMU TAF 2022/01/24 18:40 UTC NOAA

TAF KGMU 241738Z 2418/2518 22006KT P6SM SCT250
FM250500 24005KT P6SM BKN200
FM251200 26003KT P6SM BKN130
FM251600 26005KT P6SM SCT045 BKN110

Example: see airport list